Time;durP1;ratioP1;P1;durP2;ratioP2;P2;SDS_P1;SDS_P2;PMS_P1;PMS_P2;Temp;Humidity;BMP_temperature;BMP_pressure;BME280_temperature;BME280_humidity;BME280_pressure;Samples;Min_cycle;Max_cycle;Signal;HPM_P1;HPM_P2
2022/05/26 00:01:46;;;;;;;26.88;9.00;;;14.20;99.90;;;;;;4990101;28;20433;-74
2022/05/26 00:04:12;;;;;;;26.38;9.07;;;14.10;99.90;;;;;;4988807;28;20777;-74
2022/05/26 00:06:37;;;;;;;32.30;10.40;;;14.30;99.90;;;;;;4976752;28;20398;-74
2022/05/26 00:09:04;;;;;;;32.65;10.13;;;;;;;;;;4975036;28;20829;-74
2022/05/26 00:11:33;;;;;;;32.60;9.53;;;;;;;;;;4991541;28;20767;-73
2022/05/26 00:14:07;;;;;;;31.67;10.10;;;14.10;99.90;;;;;;4969991;28;20576;-74
2022/05/26 00:16:37;;;;;;;29.58;10.82;;;;;;;;;;4990218;28;20429;-74
2022/05/26 00:19:03;;;;;;;34.80;10.38;;;;;;;;;;4973503;28;20432;-74
2022/05/26 00:21:29;;;;;;;30.98;10.35;;;14.50;99.90;;;;;;4987476;28;20826;-74
2022/05/26 00:23:55;;;;;;;34.57;10.07;;;;;;;;;;4972381;28;20564;-74
2022/05/26 00:26:22;;;;;;;36.58;11.23;;;;;;;;;;4987613;28;20508;-75
2022/05/26 00:28:48;;;;;;;36.35;10.90;;;14.40;99.90;;;;;;4992696;28;20509;-75
2022/05/26 00:31:13;;;;;;;41.58;11.43;;;14.40;99.90;;;;;;4974917;28;21077;-74
2022/05/26 00:33:40;;;;;;;33.90;11.70;;;;;;;;;;4989331;28;20428;-76
2022/05/26 00:36:06;;;;;;;36.30;10.50;;;;;;;;;;4991722;28;20921;-75
2022/05/26 00:38:32;;;;;;;37.20;11.77;;;;;;;;;;4989343;28;20436;-76
2022/05/26 00:41:03;;;;;;;36.00;12.43;;;;;;;;;;4990848;28;20497;-75
2022/05/26 00:43:29;;;;;;;34.35;11.40;;;;;;;;;;4974553;28;20434;-75
2022/05/26 00:46:17;;;;;;;38.03;11.70;;;14.30;99.90;;;;;;4957286;28;20437;-75
2022/05/26 00:48:48;;;;;;;36.73;11.53;;;;;;;;;;4990404;28;20511;-75
2022/05/26 00:51:16;;;;;;;34.45;12.10;;;14.20;99.90;;;;;;4972722;28;20419;-75
2022/05/26 00:53:52;;;;;;;41.60;12.05;;;;;;;;;;4991083;28;20553;-75
2022/05/26 00:56:18;;;;;;;29.83;10.63;;;;;;;;;;4989159;28;20507;-75
2022/05/26 00:58:48;;;;;;;36.70;12.02;;;14.20;99.90;;;;;;4987431;28;20426;-75
2022/05/26 01:01:15;;;;;;;41.30;12.05;;;14.40;99.90;;;;;;4983753;28;20511;-75
2022/05/26 01:03:46;;;;;;;32.28;12.05;;;14.30;99.90;;;;;;4969542;28;20510;-74
2022/05/26 01:06:14;;;;;;;36.83;11.48;;;;;;;;;;4981802;28;20431;-74
2022/05/26 01:08:52;;;;;;;37.83;11.80;;;14.40;99.90;;;;;;4973645;28;20505;-75
2022/05/26 01:11:18;;;;;;;37.80;11.45;;;;;;;;;;4974721;28;20475;-75
2022/05/26 01:13:52;;;;;;;37.35;11.85;;;14.40;99.90;;;;;;4989813;28;20437;-75
2022/05/26 01:16:26;;;;;;;37.55;12.13;;;14.30;99.90;;;;;;4987628;28;20426;-76
2022/05/26 01:19:25;;;;;;;36.28;11.10;;;14.20;99.90;;;;;;4969812;28;20440;-75
2022/05/26 01:22:28;;;;;;;40.85;12.38;;;14.20;99.90;;;;;;4981466;28;20792;-73
2022/05/26 01:24:55;;;;;;;36.22;11.90;;;;;;;;;;4986573;28;20481;-74
2022/05/26 01:27:37;;;;;;;36.00;11.93;;;;;;;;;;4990554;28;20434;-74
2022/05/26 01:30:18;;;;;;;31.67;11.02;;;;;;;;;;4991097;28;20426;-74
2022/05/26 01:33:05;;;;;;;35.65;11.77;;;14.30;99.90;;;;;;4990472;28;20457;-74
2022/05/26 01:35:53;;;;;;;38.25;11.20;;;14.30;99.90;;;;;;4981305;28;20428;-74
2022/05/26 01:38:40;;;;;;;33.13;10.93;;;14.20;99.90;;;;;;4982457;28;20430;-73
2022/05/26 01:41:42;;;;;;;39.78;11.55;;;14.20;99.90;;;;;;4980995;28;20428;-73
2022/05/26 01:44:47;;;;;;;35.15;11.07;;;14.00;99.90;;;;;;4980534;28;20447;-74
2022/05/26 01:47:25;;;;;;;43.95;11.88;;;;;;;;;;4976474;28;21001;-74
2022/05/26 01:49:56;;;;;;;43.35;12.50;;;;;;;;;;4985154;28;20909;-74
2022/05/26 01:52:35;;;;;;;39.80;12.10;;;;;;;;;;4990566;28;20430;-74
2022/05/26 01:55:13;;;;;;;39.92;11.75;;;14.20;99.90;;;;;;4986608;28;20414;-73
2022/05/26 01:58:06;;;;;;;37.70;11.65;;;14.20;99.90;;;;;;4990796;28;20429;-73
2022/05/26 02:00:31;;;;;;;45.25;12.40;;;14.10;99.90;;;;;;4990980;28;20782;-75
2022/05/26 02:03:30;;;;;;;41.38;11.05;;;14.00;99.90;;;;;;4991085;28;20426;-74
2022/05/26 02:06:04;;;;;;;35.40;10.50;;;13.80;99.90;;;;;;4986560;28;20751;-74
2022/05/26 02:08:34;;;;;;;40.72;10.15;;;14.10;99.90;;;;;;4988466;28;20537;-74
2022/05/26 02:11:18;;;;;;;36.63;10.27;;;14.30;99.90;;;;;;4987268;28;20436;-74
2022/05/26 02:14:07;;;;;;;34.30;9.75;;;14.10;99.90;;;;;;4976935;28;20442;-74
2022/05/26 02:16:35;;;;;;;39.88;9.65;;;;;;;;;;4973334;28;20435;-74
2022/05/26 02:19:18;;;;;;;38.13;10.17;;;14.10;99.90;;;;;;4984569;28;20786;-74
2022/05/26 02:21:49;;;;;;;41.83;9.83;;;14.10;99.90;;;;;;4988194;28;20547;-73
2022/05/26 02:24:22;;;;;;;33.90;9.88;;;;;;;;;;4989574;28;20418;-74
2022/05/26 02:26:49;;;;;;;31.85;9.55;;;14.00;99.90;;;;;;4987170;28;20921;-74
2022/05/26 02:32:00;;;;;;;36.72;10.20;;;14.00;99.90;;;;;;4988891;28;20426;-74
2022/05/26 02:34:26;;;;;;;43.53;10.25;;;14.00;99.90;;;;;;4992396;28;20469;-74
2022/05/26 02:36:55;;;;;;;32.33;8.95;;;13.90;99.90;;;;;;4964125;28;20424;-73
2022/05/26 02:39:20;;;;;;;37.92;9.48;;;14.00;99.90;;;;;;4993806;28;20429;-73
2022/05/26 02:41:47;;;;;;;35.57;9.90;;;;;;;;;;4991897;28;20941;-73
2022/05/26 02:44:12;;;;;;;36.90;9.13;;;13.80;99.90;;;;;;4991145;28;20438;-73
2022/05/26 02:46:45;;;;;;;39.78;9.38;;;;;;;;;;4993259;28;20426;-73
2022/05/26 02:49:20;;;;;;;38.47;9.45;;;;;;;;;;4991079;28;20423;-73
2022/05/26 02:52:02;;;;;;;33.30;9.70;;;;;;;;;;4985461;28;20431;-74
2022/05/26 02:54:28;;;;;;;40.55;9.02;;;;;;;;;;4976345;28;20455;-74
2022/05/26 02:57:12;;;;;;;32.13;9.10;;;13.90;99.90;;;;;;4992383;28;20775;-74
2022/05/26 03:00:05;;;;;;;39.60;9.85;;;14.00;99.90;;;;;;4990432;28;20422;-74
2022/05/26 03:02:31;;;;;;;35.30;9.00;;;;;;;;;;4973047;28;20908;-75
2022/05/26 03:05:15;;;;;;;31.77;8.85;;;13.80;99.90;;;;;;4972821;28;20439;-74
2022/05/26 03:07:45;;;;;;;29.40;8.68;;;13.90;99.90;;;;;;4986257;28;20432;-75
2022/05/26 03:10:12;;;;;;;30.27;7.88;;;13.90;99.90;;;;;;4989053;28;20430;-74
2022/05/26 03:12:38;;;;;;;22.70;6.53;;;13.50;99.90;;;;;;4992184;28;20434;-74
2022/05/26 03:15:07;;;;;;;21.98;6.15;;;13.80;99.90;;;;;;4988811;28;20432;-74
2022/05/26 03:17:33;;;;;;;19.77;5.25;;;;;;;;;;4992620;28;20450;-74
2022/05/26 03:19:59;;;;;;;22.00;5.00;;;13.90;99.90;;;;;;4976607;28;20426;-74
2022/05/26 03:22:25;;;;;;;18.83;4.50;;;;;;;;;;4992678;28;20929;-74
2022/05/26 03:24:51;;;;;;;18.17;4.22;;;;;;;;;;4990779;28;20494;-75
2022/05/26 03:27:18;;;;;;;12.93;3.53;;;;;;;;;;4988587;28;20439;-74
2022/05/26 03:29:44;;;;;;;16.87;4.23;;;;;;;;;;4991356;28;20482;-75
2022/05/26 03:32:10;;;;;;;17.75;4.05;;;;;;;;;;4977266;28;20422;-74
2022/05/26 03:42:51;;;;;;;12.57;3.00;;;13.50;99.90;;;;;;4989260;28;20437;-74
2022/05/26 03:45:18;;;;;;;12.80;2.80;;;;;;;;;;4988247;28;20438;-74
2022/05/26 03:47:44;;;;;;;9.68;2.58;;;;;;;;;;4957930;28;20432;-74
2022/05/26 03:50:11;;;;;;;11.60;3.00;;;13.40;99.90;;;;;;4986586;28;20430;-74
2022/05/26 03:52:37;;;;;;;10.13;2.80;;;;;;;;;;4976046;28;20418;-74
2022/05/26 03:55:03;;;;;;;10.50;2.87;;;13.30;99.90;;;;;;4989047;28;20465;-74
2022/05/26 03:57:31;;;;;;;9.68;3.13;;;13.40;99.90;;;;;;4993605;28;20790;-74
2022/05/26 03:59:57;;;;;;;10.02;2.80;;;13.10;99.90;;;;;;4989238;28;20434;-74
2022/05/26 04:02:24;;;;;;;7.90;2.45;;;;;;;;;;4993342;28;20501;-74
2022/05/26 04:04:50;;;;;;;10.02;2.33;;;;;;;;;;4972545;28;20438;-73
2022/05/26 04:07:16;;;;;;;9.68;2.47;;;13.10;99.90;;;;;;4990741;28;20437;-74
2022/05/26 04:09:41;;;;;;;9.27;2.58;;;13.20;99.90;;;;;;4973417;28;20451;-75
2022/05/26 04:12:09;;;;;;;10.50;2.47;;;13.40;99.90;;;;;;4990320;28;20517;-75
2022/05/26 04:14:35;;;;;;;7.28;2.65;;;13.40;99.90;;;;;;4992164;28;20782;-74
2022/05/26 04:17:01;;;;;;;8.07;2.33;;;14.20;99.90;;;;;;4972398;28;20921;-74
2022/05/26 04:19:27;;;;;;;11.60;2.78;;;13.30;99.90;;;;;;4974220;28;20465;-74
2022/05/26 04:24:38;;;;;;;7.25;2.03;;;;;;;;;;4992052;28;20411;-74
2022/05/26 04:27:05;;;;;;;10.02;2.60;;;13.50;99.90;;;;;;4982078;28;20960;-74
2022/05/26 04:29:31;;;;;;;8.65;2.28;;;13.40;99.90;;;;;;4983598;28;20426;-74
2022/05/26 04:31:57;;;;;;;8.23;2.10;;;13.40;99.90;;;;;;4991774;28;20422;-73
2022/05/26 04:34:23;;;;;;;6.68;2.00;;;;;;;;;;4990410;28;21077;-73
2022/05/26 04:36:49;;;;;;;9.47;2.20;;;;;;;;;;4988839;28;20430;-74
2022/05/26 04:39:16;;;;;;;8.98;2.20;;;13.70;99.90;;;;;;4991480;28;20501;-73
2022/05/26 04:41:42;;;;;;;8.30;2.58;;;13.50;99.90;;;;;;4992029;28;20428;-75
2022/05/26 04:44:13;;;;;;;8.00;2.38;;;;;;;;;;4992097;28;20454;-74
2022/05/26 04:46:39;;;;;;;8.07;2.30;;;;;;;;;;4988153;28;20458;-75
2022/05/26 04:49:06;;;;;;;8.43;2.22;;;13.60;99.90;;;;;;4990923;28;20980;-74
2022/05/26 04:51:34;;;;;;;10.70;2.25;;;13.50;99.90;;;;;;4992756;28;20775;-74
2022/05/26 04:54:00;;;;;;;6.57;1.80;;;;;;;;;;4990928;28;20461;-75
2022/05/26 04:56:26;;;;;;;9.73;2.10;;;;;;;;;;4991088;28;20425;-75
2022/05/26 04:58:52;;;;;;;9.15;1.90;;;;;;;;;;4989034;28;20457;-74
2022/05/26 05:01:19;;;;;;;7.95;2.00;;;13.50;99.90;;;;;;4989858;28;20442;-74
2022/05/26 05:03:46;;;;;;;7.20;2.13;;;;;;;;;;4991395;28;20783;-75
2022/05/26 05:06:13;;;;;;;7.78;2.50;;;13.70;99.90;;;;;;4990996;28;20461;-75
2022/05/26 05:08:39;;;;;;;8.20;1.90;;;;;;;;;;4990279;28;20426;-75
2022/05/26 05:11:05;;;;;;;8.20;1.70;;;13.30;99.90;;;;;;4991809;28;20426;-74
2022/05/26 05:13:32;;;;;;;8.57;1.98;;;13.60;99.90;;;;;;4973075;28;20430;-75
2022/05/26 05:16:12;;;;;;;9.25;2.28;;;13.60;99.90;;;;;;4969285;28;20431;-75
2022/05/26 05:18:38;;;;;;;9.18;2.40;;;;;;;;;;4981127;28;20454;-74
2022/05/26 05:21:08;;;;;;;8.50;2.03;;;13.90;99.90;;;;;;4977174;28;20423;-74
2022/05/26 05:23:39;;;;;;;8.05;1.88;;;13.80;99.90;;;;;;4990279;28;20430;-74
2022/05/26 05:26:05;;;;;;;7.93;2.10;;;;;;;;;;4990224;28;20937;-74
2022/05/26 05:28:33;;;;;;;8.95;2.20;;;;;;;;;;4991354;28;20441;-74
2022/05/26 05:31:10;;;;;;;8.57;1.90;;;13.70;99.90;;;;;;4990228;28;20449;-74
2022/05/26 05:33:46;;;;;;;9.32;1.85;;;14.00;99.90;;;;;;4974360;28;20422;-74
2022/05/26 05:36:17;;;;;;;9.10;2.00;;;;;;;;;;4974602;28;20801;-74
2022/05/26 05:38:43;;;;;;;5.95;1.88;;;13.90;99.90;;;;;;4990851;28;20447;-74
2022/05/26 05:41:10;;;;;;;8.60;2.20;;;14.10;99.90;;;;;;4989203;28;20426;-74
2022/05/26 05:43:37;;;;;;;6.03;1.80;;;14.20;99.90;;;;;;4987925;28;20563;-74
2022/05/26 05:46:03;;;;;;;6.82;1.75;;;14.10;99.90;;;;;;4987794;28;20524;-75
2022/05/26 05:48:29;;;;;;;7.05;1.58;;;14.10;99.90;;;;;;4991898;28;20423;-75
2022/05/26 05:50:55;;;;;;;7.43;1.65;;;;;;;;;;4976165;28;20434;-74
2022/05/26 05:53:21;;;;;;;7.53;1.77;;;14.20;99.90;;;;;;4973541;28;20554;-74
2022/05/26 05:55:47;;;;;;;7.77;2.00;;;;;;;;;;4991284;28;20920;-74
2022/05/26 05:58:13;;;;;;;9.20;1.92;;;14.70;99.90;;;;;;4968864;28;20562;-75
2022/05/26 06:00:40;;;;;;;7.05;1.60;;;14.70;99.90;;;;;;4952764;28;20422;-74
2022/05/26 06:03:06;;;;;;;9.40;1.80;;;14.70;99.90;;;;;;4989467;28;20437;-74
2022/05/26 06:05:32;;;;;;;7.13;1.60;;;14.50;99.90;;;;;;4989797;28;20430;-74
2022/05/26 06:07:58;;;;;;;7.65;1.85;;;;;;;;;;4991442;28;20449;-74
2022/05/26 06:10:24;;;;;;;7.43;1.50;;;14.90;99.90;;;;;;4978942;28;20940;-75
2022/05/26 06:12:50;;;;;;;10.50;1.90;;;14.90;99.90;;;;;;4993122;28;20426;-74
2022/05/26 06:15:16;;;;;;;9.80;1.90;;;;;;;;;;4976343;28;20779;-74
2022/05/26 06:17:42;;;;;;;7.07;1.52;;;;;;;;;;4995013;28;20464;-75
2022/05/26 06:20:10;;;;;;;6.10;1.35;;;15.50;99.90;;;;;;4979212;28;20421;-74
2022/05/26 06:22:39;;;;;;;6.40;1.58;;;15.40;99.90;;;;;;4987685;28;20461;-75
2022/05/26 06:25:06;;;;;;;5.50;1.67;;;15.70;99.90;;;;;;4992487;28;20485;-74
2022/05/26 06:30:19;;;;;;;6.32;1.40;;;15.60;99.90;;;;;;4993169;28;20417;-74
2022/05/26 06:38:22;;;;;;;5.68;1.35;;;16.30;99.90;;;;;;4978669;28;20420;-75
2022/05/26 06:40:49;;;;;;;7.03;1.75;;;16.30;99.90;;;;;;4993271;28;20454;-75
2022/05/26 06:43:17;;;;;;;6.32;1.38;;;16.30;99.90;;;;;;4976121;28;20445;-74
2022/05/26 06:45:46;;;;;;;6.47;1.70;;;16.30;99.90;;;;;;4988566;28;20882;-75
2022/05/26 06:48:12;;;;;;;7.25;1.40;;;;;;;;;;4978592;28;20436;-74
2022/05/26 06:50:39;;;;;;;8.00;1.60;;;16.10;99.90;;;;;;4983675;28;20445;-75
2022/05/26 06:53:05;;;;;;;5.03;1.50;;;;;;;;;;4990734;28;20418;-74
2022/05/26 06:55:32;;;;;;;6.32;1.30;;;;;;;;;;4978251;28;20429;-75
2022/05/26 06:57:58;;;;;;;6.55;1.42;;;;;;;;;;4992857;28;20488;-74
2022/05/26 07:00:24;;;;;;;6.07;1.40;;;16.10;99.90;;;;;;4993602;28;20519;-75
2022/05/26 07:02:53;;;;;;;5.30;1.52;;;16.10;99.90;;;;;;4995538;28;20790;-75
2022/05/26 07:05:25;;;;;;;5.32;1.58;;;15.80;99.90;;;;;;4991315;28;20430;-75
2022/05/26 07:07:51;;;;;;;8.82;1.70;;;16.00;99.90;;;;;;4990176;28;20470;-75
2022/05/26 07:10:17;;;;;;;8.32;1.63;;;15.70;99.90;;;;;;4976919;28;20461;-74
2022/05/26 07:12:43;;;;;;;6.50;1.80;;;;;;;;;;4988238;28;20441;-74
2022/05/26 07:15:10;;;;;;;5.32;1.38;;;;;;;;;;4990747;28;20473;-74
2022/05/26 07:17:38;;;;;;;6.97;1.75;;;15.80;99.90;;;;;;4993196;28;20411;-74
2022/05/26 07:20:04;;;;;;;5.05;1.45;;;16.00;99.90;;;;;;4986063;28;20501;-74
2022/05/26 07:22:31;;;;;;;5.07;1.42;;;;;;;;;;4991544;28;20480;-74
2022/05/26 07:24:58;;;;;;;5.35;1.58;;;;;;;;;;4991210;28;20449;-74
2022/05/26 07:27:24;;;;;;;5.87;1.40;;;;;;;;;;4991294;28;20434;-74
2022/05/26 07:29:49;;;;;;;6.72;1.60;;;16.20;99.90;;;;;;4972240;28;20511;-74
2022/05/26 07:32:15;;;;;;;6.78;1.35;;;;;;;;;;4975484;28;20919;-74
2022/05/26 07:34:41;;;;;;;5.25;2.00;;;16.50;99.90;;;;;;4991636;28;20917;-74
2022/05/26 07:42:37;;;;;;;5.78;1.40;;;16.30;99.90;;;;;;4978705;28;20430;-74
2022/05/26 07:45:04;;;;;;;6.35;1.67;;;16.50;99.90;;;;;;4986677;28;20453;-74
2022/05/26 07:47:30;;;;;;;6.57;1.70;;;16.60;99.90;;;;;;4992693;28;20436;-74
2022/05/26 07:49:56;;;;;;;5.40;1.63;;;16.40;99.90;;;;;;4989553;28;20513;-73
2022/05/26 07:52:22;;;;;;;7.33;1.70;;;;;;;;;;4993042;28;20452;-73
2022/05/26 07:54:48;;;;;;;5.97;1.73;;;16.60;99.90;;;;;;4982857;28;20458;-73
2022/05/26 07:57:26;;;;;;;9.07;1.65;;;16.30;99.90;;;;;;4990353;28;20426;-73
2022/05/26 07:59:53;;;;;;;5.28;1.70;;;16.70;99.90;;;;;;4990547;28;20426;-74
2022/05/26 08:02:19;;;;;;;5.93;1.58;;;16.80;99.90;;;;;;4991013;28;20439;-74
2022/05/26 08:04:45;;;;;;;5.10;1.47;;;;;;;;;;4992480;28;20497;-74
2022/05/26 08:07:12;;;;;;;5.80;1.30;;;17.10;99.90;;;;;;4991392;28;20418;-74
2022/05/26 08:09:38;;;;;;;7.47;1.50;;;16.90;99.90;;;;;;4990399;28;20947;-73
2022/05/26 08:12:10;;;;;;;7.63;1.40;;;16.90;99.90;;;;;;4988105;28;20432;-74
2022/05/26 08:14:37;;;;;;;9.13;1.50;;;;;;;;;;4988647;28;20426;-73
2022/05/26 08:17:03;;;;;;;4.55;1.10;;;;;;;;;;4989660;28;20425;-74
2022/05/26 08:19:29;;;;;;;5.13;1.33;;;17.10;99.90;;;;;;4991984;28;20438;-73
2022/05/26 08:21:55;;;;;;;6.33;1.50;;;17.20;99.90;;;;;;4989029;28;20450;-74
2022/05/26 08:24:22;;;;;;;8.07;1.30;;;17.50;99.90;;;;;;4974746;28;21020;-73
2022/05/26 08:26:48;;;;;;;6.00;1.48;;;17.60;99.90;;;;;;4974381;28;20429;-74
2022/05/26 08:29:14;;;;;;;7.60;1.42;;;17.60;99.90;;;;;;4985535;28;20489;-74
2022/05/26 08:31:39;;;;;;;5.25;1.30;;;17.80;99.90;;;;;;4991165;28;20422;-73
2022/05/26 08:34:05;;;;;;;5.60;1.50;;;17.80;99.90;;;;;;4990456;28;20432;-73
2022/05/26 08:36:33;;;;;;;6.32;1.58;;;17.60;99.90;;;;;;4988263;28;20992;-74
2022/05/26 08:38:58;;;;;;;6.03;1.30;;;17.80;99.90;;;;;;4984796;28;20428;-73
2022/05/26 08:41:30;;;;;;;5.15;1.40;;;17.70;99.90;;;;;;4972479;28;20499;-73
2022/05/26 08:44:13;;;;;;;6.65;1.40;;;17.70;99.90;;;;;;4982335;28;20501;-74
2022/05/26 08:46:44;;;;;;;7.03;1.65;;;17.50;99.90;;;;;;4988287;28;20426;-74
2022/05/26 08:49:13;;;;;;;5.93;1.27;;;;;;;;;;4965807;28;20524;-73
2022/05/26 08:52:05;;;;;;;6.00;1.58;;;18.00;99.90;;;;;;4991922;28;20902;-73
2022/05/26 08:54:45;;;;;;;7.05;1.50;;;18.10;99.90;;;;;;4987546;28;20462;-73
2022/05/26 08:57:13;;;;;;;5.18;1.30;;;;;;;;;;4977248;28;20516;-72
2022/05/26 08:59:42;;;;;;;4.65;1.77;;;18.00;99.90;;;;;;4988345;28;20422;-73
2022/05/26 09:02:25;;;;;;;4.93;1.27;;;18.10;99.90;;;;;;4987692;28;20440;-73
2022/05/26 09:04:54;;;;;;;5.18;1.60;;;18.00;99.90;;;;;;4979972;28;20414;-73
2022/05/26 09:13:06;;;;;;;5.25;1.42;;;17.70;99.90;;;;;;4982384;28;20431;-73
2022/05/26 09:15:35;;;;;;;6.20;1.27;;;18.00;99.90;;;;;;4976848;28;20429;-73
2022/05/26 09:18:16;;;;;;;4.45;1.23;;;18.10;99.90;;;;;;4989183;28;20438;-74
2022/05/26 09:20:44;;;;;;;6.22;1.27;;;18.20;99.90;;;;;;4991012;28;20917;-73
2022/05/26 09:23:14;;;;;;;5.43;1.13;;;18.40;99.90;;;;;;4988571;28;20434;-73
2022/05/26 09:25:50;;;;;;;4.70;1.10;;;18.40;99.90;;;;;;4990145;28;20421;-74
2022/05/26 09:28:28;;;;;;;4.15;1.25;;;18.80;99.90;;;;;;4991336;28;20434;-73
2022/05/26 09:30:54;;;;;;;3.97;1.20;;;18.60;99.90;;;;;;4985851;28;20430;-73
2022/05/26 09:33:28;;;;;;;3.53;1.20;;;18.30;99.90;;;;;;4987691;28;20465;-73
2022/05/26 09:35:59;;;;;;;3.88;1.20;;;18.40;99.90;;;;;;4987172;28;20433;-73
2022/05/26 09:38:31;;;;;;;4.83;1.40;;;18.50;99.90;;;;;;4984044;28;20433;-73
2022/05/26 09:41:06;;;;;;;5.32;1.25;;;18.50;99.90;;;;;;4960379;28;20423;-74
2022/05/26 09:43:33;;;;;;;6.18;1.67;;;18.10;99.90;;;;;;4991245;28;20434;-73
2022/05/26 09:46:07;;;;;;;5.80;1.33;;;17.90;99.90;;;;;;4986966;28;20432;-73
2022/05/26 09:48:37;;;;;;;4.15;1.23;;;18.20;99.90;;;;;;4971366;28;20897;-73
2022/05/26 09:51:24;;;;;;;6.50;1.40;;;18.30;99.90;;;;;;4991145;28;20461;-73
2022/05/26 09:53:55;;;;;;;5.20;1.10;;;18.30;99.90;;;;;;4993844;28;20422;-73
2022/05/26 09:56:38;;;;;;;6.22;1.38;;;18.40;99.90;;;;;;4994270;28;20413;-74
2022/05/26 09:59:38;;;;;;;5.30;1.48;;;18.40;99.90;;;;;;4992849;28;20422;-73
2022/05/26 10:02:15;;;;;;;5.18;1.30;;;18.20;99.90;;;;;;4989422;28;20434;-73
2022/05/26 10:04:40;;;;;;;5.15;1.20;;;18.70;99.90;;;;;;4991538;28;20422;-73
2022/05/26 10:07:22;;;;;;;4.67;1.30;;;19.00;99.90;;;;;;4992661;28;20484;-73
2022/05/26 10:09:57;;;;;;;5.45;1.73;;;19.30;99.90;;;;;;4970686;28;20426;-73
2022/05/26 10:12:51;;;;;;;3.93;1.30;;;19.80;99.90;;;;;;4989052;28;20430;-73
2022/05/26 10:15:32;;;;;;;5.63;1.42;;;19.30;99.90;;;;;;4992191;28;20430;-74
2022/05/26 10:18:10;;;;;;;5.00;1.20;;;19.20;99.90;;;;;;4991912;28;20426;-74
2022/05/26 10:21:13;;;;;;;7.00;1.35;;;19.20;99.90;;;;;;4987021;28;20509;-74
2022/05/26 10:24:05;;;;;;;7.25;1.58;;;19.30;99.90;;;;;;4991522;28;20472;-74
2022/05/26 10:26:48;;;;;;;6.38;1.63;;;19.30;99.90;;;;;;4992556;28;20992;-74
2022/05/26 10:29:23;;;;;;;5.35;1.60;;;19.30;99.90;;;;;;4984892;28;20435;-74
2022/05/26 10:31:58;;;;;;;6.80;1.60;;;19.20;99.90;;;;;;4974697;28;20442;-73
2022/05/26 10:34:36;;;;;;;5.65;1.60;;;19.20;99.90;;;;;;4992682;28;20465;-73
2022/05/26 10:37:15;;;;;;;6.05;1.60;;;19.10;99.90;;;;;;4991092;28;20504;-73
2022/05/26 10:39:59;;;;;;;4.30;1.40;;;19.10;99.90;;;;;;4991336;28;20449;-73
2022/05/26 10:42:33;;;;;;;4.37;1.40;;;18.90;99.90;;;;;;4991841;28;20503;-74
2022/05/26 10:45:16;;;;;;;7.03;1.73;;;19.10;99.90;;;;;;4991771;28;20430;-74
2022/05/26 10:47:54;;;;;;;4.78;1.50;;;19.50;99.90;;;;;;4992463;28;20433;-74
2022/05/26 10:50:42;;;;;;;4.32;1.50;;;19.60;99.90;;;;;;4993097;28;20783;-74
2022/05/26 10:53:19;;;;;;;5.03;1.58;;;19.60;99.90;;;;;;4975670;28;20489;-73
2022/05/26 10:56:05;;;;;;;6.55;1.63;;;19.60;99.90;;;;;;4990046;28;20433;-73
2022/05/26 10:58:39;;;;;;;4.18;1.50;;;20.10;99.90;;;;;;4976529;28;20752;-73
2022/05/26 11:01:15;;;;;;;5.72;1.40;;;19.80;99.90;;;;;;4990817;28;20432;-73
2022/05/26 11:03:48;;;;;;;5.97;1.40;;;20.30;99.90;;;;;;4989740;28;20476;-73
2022/05/26 11:06:26;;;;;;;3.63;1.05;;;20.30;99.90;;;;;;4982531;28;20415;-73
2022/05/26 11:09:12;;;;;;;2.92;0.90;;;20.00;99.90;;;;;;4989976;28;20431;-73
2022/05/26 11:11:43;;;;;;;4.32;1.40;;;20.10;99.90;;;;;;4989778;28;20995;-73
2022/05/26 11:17:35;;;;;;;4.55;1.25;;;20.50;99.90;;;;;;4990374;28;20427;-73
2022/05/26 11:20:18;;;;;;;4.30;1.40;;;20.10;99.90;;;;;;4993162;28;20893;-74
2022/05/26 11:22:46;;;;;;;5.20;1.30;;;20.30;99.90;;;;;;4991624;28;20457;-73
2022/05/26 11:25:20;;;;;;;6.53;1.53;;;20.30;99.90;;;;;;4985572;28;20423;-73
2022/05/26 11:27:49;;;;;;;6.30;1.40;;;20.30;99.90;;;;;;4966436;28;20851;-73
2022/05/26 11:36:32;;;;;;;5.45;1.33;;;19.90;99.90;;;;;;4993303;28;20450;-73
2022/05/26 11:39:01;;;;;;;4.00;1.30;;;19.50;99.90;;;;;;4987904;28;20436;-74
2022/05/26 11:41:47;;;;;;;6.78;1.25;;;19.30;99.90;;;;;;4989244;28;20517;-73
2022/05/26 11:44:39;;;;;;;6.18;1.77;;;20.10;99.90;;;;;;4989518;28;20442;-73
2022/05/26 11:47:33;;;;;;;9.13;1.83;;;20.40;99.90;;;;;;4992392;28;20427;-74
2022/05/26 11:50:19;;;;;;;6.25;1.50;;;20.30;99.90;;;;;;4974226;28;20439;-73
2022/05/26 11:52:45;;;;;;;5.68;1.65;;;20.30;99.90;;;;;;4973869;28;20437;-73
2022/05/26 11:55:35;;;;;;;5.70;1.80;;;20.50;99.90;;;;;;4975534;28;20430;-73
2022/05/26 11:58:29;;;;;;;6.22;1.77;;;20.30;99.90;;;;;;4975135;28;20524;-72
2022/05/26 12:01:21;;;;;;;5.68;1.67;;;20.10;99.90;;;;;;4987625;28;20501;-73
2022/05/26 12:04:01;;;;;;;5.18;1.60;;;20.10;99.90;;;;;;4981072;28;20496;-73
2022/05/26 12:06:42;;;;;;;8.15;1.92;;;19.90;99.90;;;;;;4973026;28;20426;-72
2022/05/26 12:09:19;;;;;;;5.10;1.65;;;19.70;99.90;;;;;;4992330;28;20846;-73
2022/05/26 12:12:06;;;;;;;5.38;1.83;;;19.60;99.90;;;;;;4988190;28;20430;-72
2022/05/26 12:14:55;;;;;;;7.22;1.85;;;19.50;99.90;;;;;;4987479;28;20457;-73
2022/05/26 12:17:35;;;;;;;5.75;1.85;;;19.40;99.90;;;;;;4990380;28;20438;-73
2022/05/26 12:20:03;;;;;;;7.78;1.77;;;19.30;99.90;;;;;;4992061;28;20414;-73
2022/05/26 12:22:37;;;;;;;5.53;1.63;;;19.40;99.90;;;;;;4990856;28;20433;-73
2022/05/26 12:25:05;;;;;;;4.90;1.50;;;19.20;99.90;;;;;;4988811;28;20520;-73
2022/05/26 12:27:55;;;;;;;6.57;1.67;;;19.00;99.90;;;;;;4986576;28;20436;-73
2022/05/26 12:30:46;;;;;;;6.43;1.67;;;19.60;99.90;;;;;;4985054;28;20430;-73
2022/05/26 12:33:23;;;;;;;8.90;1.83;;;19.80;99.90;;;;;;4990822;28;20426;-73
2022/05/26 12:36:17;;;;;;;6.73;1.83;;;19.70;99.90;;;;;;4971296;28;20434;-74
2022/05/26 12:39:17;;;;;;;4.40;1.70;;;19.60;99.90;;;;;;4986938;28;20501;-73
2022/05/26 12:42:10;;;;;;;6.88;2.10;;;19.70;99.90;;;;;;4956142;28;21000;-73
2022/05/26 12:44:47;;;;;;;5.85;1.75;;;19.60;99.90;;;;;;4973167;28;20438;-72
2022/05/26 12:47:36;;;;;;;7.00;1.70;;;19.60;99.90;;;;;;4987588;28;20431;-73
2022/05/26 12:50:02;;;;;;;10.18;2.22;;;19.30;99.90;;;;;;4972828;28;20437;-73
2022/05/26 12:52:41;;;;;;;7.40;2.00;;;19.20;99.90;;;;;;4983666;28;20479;-73
2022/05/26 12:55:23;;;;;;;8.37;1.90;;;19.40;99.90;;;;;;4989665;28;20432;-73
2022/05/26 12:58:01;;;;;;;7.57;1.80;;;19.40;99.90;;;;;;4973797;28;20434;-73
2022/05/26 13:00:37;;;;;;;9.67;2.27;;;19.40;99.90;;;;;;4974139;28;20921;-73
2022/05/26 13:03:23;;;;;;;5.88;1.85;;;19.60;99.90;;;;;;4989058;28;20786;-72
2022/05/26 13:06:07;;;;;;;6.30;1.95;;;19.50;99.90;;;;;;4985242;28;20437;-74
2022/05/26 13:09:07;;;;;;;6.50;2.03;;;19.40;99.90;;;;;;4989709;28;20487;-74
2022/05/26 13:11:57;;;;;;;7.45;1.80;;;18.60;99.90;;;;;;4988298;28;20466;-72
2022/05/26 13:14:31;;;;;;;7.95;2.03;;;18.90;99.90;;;;;;4984791;28;20844;-74
2022/05/26 13:17:00;;;;;;;7.38;2.00;;;18.70;99.90;;;;;;4987005;28;20439;-73
2022/05/26 13:19:27;;;;;;;8.48;2.20;;;18.90;99.90;;;;;;4988337;28;20433;-72
2022/05/26 13:21:54;;;;;;;6.10;1.98;;;19.00;99.90;;;;;;4989993;28;20521;-73
2022/05/26 13:24:29;;;;;;;7.38;1.75;;;18.80;99.90;;;;;;4973655;28;20452;-73
2022/05/26 13:27:01;;;;;;;5.68;1.90;;;19.00;99.90;;;;;;4982325;28;20443;-73
2022/05/26 13:29:28;;;;;;;8.20;1.95;;;18.80;99.90;;;;;;4992064;28;21016;-72
2022/05/26 13:34:46;;;;;;;6.87;1.80;;;;;;;;;;4988133;28;20857;-73
2022/05/26 13:37:23;;;;;;;7.00;2.10;;;19.20;99.90;;;;;;4990696;28;20421;-72
2022/05/26 13:40:07;;;;;;;7.03;2.20;;;19.10;99.90;;;;;;4988958;28;20424;-73
2022/05/26 13:42:36;;;;;;;8.10;2.33;;;19.10;99.90;;;;;;4987345;28;20426;-73
2022/05/26 13:45:04;;;;;;;9.25;2.03;;;19.10;99.90;;;;;;4988866;28;20433;-73
2022/05/26 13:47:30;;;;;;;5.18;1.60;;;18.80;99.90;;;;;;4986090;28;20434;-73
2022/05/26 13:50:01;;;;;;;6.10;1.90;;;18.90;99.90;;;;;;4990960;28;20815;-72
2022/05/26 13:52:29;;;;;;;5.38;1.70;;;18.60;99.90;;;;;;4986440;28;20427;-72
2022/05/26 13:55:06;;;;;;;10.02;2.05;;;19.00;99.90;;;;;;4985553;28;20431;-72
2022/05/26 13:57:39;;;;;;;7.20;1.70;;;19.00;99.90;;;;;;4990123;28;20414;-72
2022/05/26 14:00:30;;;;;;;7.00;1.95;;;18.80;99.90;;;;;;4969746;28;20471;-73
2022/05/26 14:03:01;;;;;;;10.00;2.20;;;18.60;99.90;;;;;;4984586;28;20434;-73
2022/05/26 14:05:32;;;;;;;6.78;1.95;;;18.40;99.90;;;;;;4960678;28;20557;-73
2022/05/26 14:07:58;;;;;;;8.00;2.10;;;18.50;99.90;;;;;;4990589;28;20458;-73
2022/05/26 14:10:29;;;;;;;6.35;2.10;;;;;;;;;;4989334;28;20487;-72
2022/05/26 14:13:08;;;;;;;9.00;2.20;;;18.30;99.90;;;;;;4985096;28;20517;-73
2022/05/26 14:16:05;;;;;;;7.72;2.15;;;18.30;99.90;;;;;;4986483;28;20425;-72
2022/05/26 14:18:30;;;;;;;12.68;2.33;;;18.40;99.90;;;;;;4990815;28;20441;-73
2022/05/26 14:21:15;;;;;;;6.77;2.17;;;18.50;99.90;;;;;;4971094;28;20435;-73
2022/05/26 14:23:54;;;;;;;8.50;2.15;;;18.40;99.90;;;;;;4989388;28;20434;-73